Time;durP1;ratioP1;P1;durP2;ratioP2;P2;SDS_P1;SDS_P2;PMS_P1;PMS_P2;Temp;Humidity;BMP_temperature;BMP_pressure;BME280_temperature;BME280_humidity;BME280_pressure;Samples;Min_cycle;Max_cycle;Signal;HPM_P1;HPM_P2
2022/08/31 00:05:56;;;;;;;;;;;20.40;72.60;;;;;;5046069;28;82173;-44
2022/08/31 00:08:22;;;;;;;;;;;20.40;72.70;;;;;;5045236;28;82817;-43
2022/08/31 00:10:48;;;;;;;;;;;20.40;72.80;;;;;;5048382;27;83321;-45
2022/08/31 00:13:14;;;;;;;;;;;20.40;73.30;;;;;;5045771;28;82341;-44
2022/08/31 00:15:39;;;;;;;;;;;20.40;72.70;;;;;;5045658;27;82396;-43
2022/08/31 00:18:05;;;;;;;;;;;20.40;72.70;;;;;;5045697;28;83002;-43
2022/08/31 00:20:31;;;;;;;;;;;20.40;72.70;;;;;;5045852;28;82382;-45
2022/08/31 00:22:57;;;;;;;;;;;20.40;72.70;;;;;;5045473;27;82225;-47
2022/08/31 00:25:23;;;;;;;;;;;20.40;72.50;;;;;;5046014;28;82324;-43
2022/08/31 00:27:48;;;;;;;;;;;20.40;72.50;;;;;;5045753;28;82020;-43
2022/08/31 00:30:14;;;;;;;;;;;20.30;72.50;;;;;;5045158;27;84236;-46
2022/08/31 00:32:40;;;;;;;;;;;20.40;72.60;;;;;;5047153;28;84371;-45
2022/08/31 00:35:05;;;;;;;;;;;20.40;72.60;;;;;;5046046;27;82514;-44
2022/08/31 00:37:31;;;;;;;;;;;20.30;72.50;;;;;;5048936;28;83114;-44
2022/08/31 00:39:56;;;;;;;;;;;20.30;72.60;;;;;;5049113;28;82073;-43
2022/08/31 00:42:22;;;;;;;;;;;20.30;72.60;;;;;;5049041;28;82180;-46
2022/08/31 00:44:48;;;;;;;;;;;20.30;72.50;;;;;;5048529;28;82894;-46
2022/08/31 00:47:14;;;;;;;;;;;20.30;72.60;;;;;;5049023;28;82504;-43
2022/08/31 00:49:41;;;;;;;;;;;20.30;72.50;;;;;;5049017;28;82460;-46
2022/08/31 00:52:14;;;;;;;;;;;20.20;72.60;;;;;;5048405;28;82896;-49
2022/08/31 00:54:59;;;;;;;;;;;20.30;72.50;;;;;;5051525;28;82001;-46
2022/08/31 00:57:28;;;;;;;;;;;20.30;72.50;;;;;;5047586;28;83218;-45
2022/08/31 00:59:54;;;;;;;;;;;20.20;72.40;;;;;;5048356;28;82106;-45
2022/08/31 01:02:20;;;;;;;;;;;20.20;72.60;;;;;;5048689;28;82261;-44
2022/08/31 01:04:45;;;;;;;;;;;20.20;72.50;;;;;;5048085;28;84150;-44
2022/08/31 01:07:11;;;;;;;;;;;20.20;72.40;;;;;;5048439;28;82116;-44
2022/08/31 01:09:38;;;;;;;;;;;20.20;72.40;;;;;;5048476;28;82632;-42
2022/08/31 01:12:04;;;;;;;;;;;20.20;72.40;;;;;;5048019;28;82993;-44
2022/08/31 01:14:30;;;;;;;;;;;20.20;72.50;;;;;;5049032;28;81230;-44
2022/08/31 01:16:56;;;;;;;;;;;20.20;72.40;;;;;;5051077;27;81907;-47
2022/08/31 01:19:26;;;;;;;;;;;20.20;72.30;;;;;;5048388;28;82031;-44
2022/08/31 01:22:04;;;;;;;;;;;20.20;72.40;;;;;;5047672;27;82733;-44
2022/08/31 01:24:30;;;;;;;;;;;20.20;72.30;;;;;;5048021;28;82936;-43
2022/08/31 01:27:02;;;;;;;;;;;20.10;72.40;;;;;;5048498;28;82012;-43
2022/08/31 01:29:27;;;;;;;;;;;20.10;72.50;;;;;;5048196;27;83926;-46
2022/08/31 01:31:53;;;;;;;;;;;20.10;72.30;;;;;;5048073;28;83241;-47
2022/08/31 01:34:19;;;;;;;;;;;20.10;72.30;;;;;;5048137;28;82040;-44
2022/08/31 01:36:46;;;;;;;;;;;20.10;72.20;;;;;;5048305;27;81897;-44
2022/08/31 01:39:12;;;;;;;;;;;20.10;72.30;;;;;;5050670;28;83501;-44
2022/08/31 01:41:40;;;;;;;;;;;20.10;72.30;;;;;;5048338;28;82012;-47
2022/08/31 01:44:06;;;;;;;;;;;20.10;72.20;;;;;;5047840;28;83227;-45
2022/08/31 01:46:32;;;;;;;;;;;20.10;72.20;;;;;;5047249;27;82912;-43
2022/08/31 01:48:57;;;;;;;;;;;20.10;72.20;;;;;;5047605;28;83204;-45
2022/08/31 01:51:23;;;;;;;;;;;20.00;72.20;;;;;;5047798;28;83055;-46
2022/08/31 01:53:50;;;;;;;;;;;20.00;72.20;;;;;;5047837;28;82235;-43
2022/08/31 01:56:21;;;;;;;;;;;20.10;72.30;;;;;;5047698;27;82311;-45
2022/08/31 01:58:47;;;;;;;;;;;20.00;72.00;;;;;;5047377;28;83425;-44
2022/08/31 02:01:12;;;;;;;;;;;20.00;72.10;;;;;;5050453;28;81844;-43
2022/08/31 02:03:38;;;;;;;;;;;20.00;72.20;;;;;;5048339;28;82176;-45
2022/08/31 02:06:08;;;;;;;;;;;20.00;72.20;;;;;;5047799;28;82162;-47
2022/08/31 02:08:33;;;;;;;;;;;20.00;72.30;;;;;;5047345;28;82811;-43
2022/08/31 02:10:59;;;;;;;;;;;20.00;72.10;;;;;;5046889;28;83819;-47
2022/08/31 02:13:24;;;;;;;;;;;20.00;72.10;;;;;;5047289;28;82101;-46
2022/08/31 02:15:50;;;;;;;;;;;20.00;72.00;;;;;;5047509;28;82412;-46
2022/08/31 02:18:15;;;;;;;;;;;19.90;72.00;;;;;;5047128;28;84154;-43
2022/08/31 02:20:41;;;;;;;;;;;19.90;72.10;;;;;;5050065;28;82085;-44
2022/08/31 02:23:06;;;;;;;;;;;20.00;72.10;;;;;;5046706;28;82929;-46
2022/08/31 02:25:32;;;;;;;;;;;20.00;72.10;;;;;;5047561;28;82032;-44
2022/08/31 02:27:57;;;;;;;;;;;20.00;72.00;;;;;;5047815;28;82651;-43
2022/08/31 02:30:23;;;;;;;;;;;20.00;72.00;;;;;;5046898;28;82789;-43
2022/08/31 02:32:48;;;;;;;;;;;19.90;71.80;;;;;;5047314;28;81840;-45
2022/08/31 02:35:14;;;;;;;;;;;19.90;71.80;;;;;;5046569;28;82840;-45
2022/08/31 02:37:39;;;;;;;;;;;19.90;72.00;;;;;;5047030;28;82993;-46
2022/08/31 02:40:07;;;;;;;;;;;19.90;72.00;;;;;;5047170;28;82045;-44
2022/08/31 02:42:33;;;;;;;;;;;19.90;72.00;;;;;;5049890;27;82032;-46
2022/08/31 02:44:58;;;;;;;;;;;19.90;71.90;;;;;;5047200;28;82443;-44
2022/08/31 02:47:26;;;;;;;;;;;19.90;71.80;;;;;;5046822;27;83879;-44
2022/08/31 02:49:51;;;;;;;;;;;19.90;72.00;;;;;;5046123;28;84701;-43
2022/08/31 02:52:17;;;;;;;;;;;19.80;71.90;;;;;;5047110;28;81086;-44
2022/08/31 02:54:42;;;;;;;;;;;19.80;71.80;;;;;;5046898;28;81837;-45
2022/08/31 02:57:08;;;;;;;;;;;19.80;71.80;;;;;;5046873;28;82943;-45
2022/08/31 02:59:33;;;;;;;;;;;19.80;71.80;;;;;;5045721;27;82988;-43
2022/08/31 03:01:59;;;;;;;;;;;19.80;71.90;;;;;;5046972;28;82804;-43
2022/08/31 03:04:24;;;;;;;;;;;19.80;71.90;;;;;;5049477;28;82920;-45
2022/08/31 03:06:50;;;;;;;;;;;19.80;71.80;;;;;;5046719;28;82398;-46
2022/08/31 03:09:15;;;;;;;;;;;19.70;71.80;;;;;;5046204;28;83415;-43
2022/08/31 03:11:41;;;;;;;;;;;19.80;71.80;;;;;;5046639;28;81825;-46
2022/08/31 03:14:07;;;;;;;;;;;19.70;71.80;;;;;;5046888;28;82281;-45
2022/08/31 03:16:32;;;;;;;;;;;19.80;71.90;;;;;;5046945;28;81492;-46
2022/08/31 03:18:58;;;;;;;;;;;19.70;71.80;;;;;;5046734;28;83160;-45
2022/08/31 03:21:23;;;;;;;;;;;19.70;71.80;;;;;;5046466;28;82395;-45
2022/08/31 03:23:49;;;;;;;;;;;19.70;71.80;;;;;;5045129;28;83889;-46
2022/08/31 03:26:14;;;;;;;;;;;19.70;71.80;;;;;;5049165;28;82081;-46
2022/08/31 03:28:40;;;;;;;;;;;19.70;71.80;;;;;;5046142;28;83078;-46
2022/08/31 03:31:07;;;;;;;;;;;19.70;71.80;;;;;;5046591;28;82019;-43
2022/08/31 03:33:32;;;;;;;;;;;19.70;71.70;;;;;;5046309;27;81902;-44
2022/08/31 03:35:58;;;;;;;;;;;19.70;71.60;;;;;;5046194;28;83006;-44
2022/08/31 03:38:23;;;;;;;;;;;19.70;71.80;;;;;;5046115;28;82020;-44
2022/08/31 03:40:49;;;;;;;;;;;19.70;71.80;;;;;;5046748;28;82246;-44
2022/08/31 03:43:16;;;;;;;;;;;19.60;71.70;;;;;;5046038;28;82198;-45
2022/08/31 03:45:41;;;;;;;;;;;19.70;71.60;;;;;;5046242;28;81985;-46
2022/08/31 03:48:07;;;;;;;;;;;19.60;71.70;;;;;;5047795;27;82923;-43
2022/08/31 03:50:34;;;;;;;;;;;19.60;71.80;;;;;;5046059;28;81956;-45
2022/08/31 03:53:02;;;;;;;;;;;19.60;71.70;;;;;;5045625;27;83747;-46
2022/08/31 03:55:29;;;;;;;;;;;19.60;71.60;;;;;;5045675;28;83378;-43
2022/08/31 03:57:55;;;;;;;;;;;19.60;71.50;;;;;;5045600;28;82136;-46
2022/08/31 04:00:21;;;;;;;;;;;19.60;71.60;;;;;;5045989;27;82633;-45
2022/08/31 04:02:47;;;;;;;;;;;19.60;71.60;;;;;;5045883;28;82966;-44
2022/08/31 04:05:13;;;;;;;;;;;19.60;71.60;;;;;;5046535;28;81254;-46
2022/08/31 04:07:38;;;;;;;;;;;19.60;71.60;;;;;;5045623;28;82484;-44
2022/08/31 04:10:05;;;;;;;;;;;19.60;71.60;;;;;;5048842;27;84320;-44
2022/08/31 04:12:31;;;;;;;;;;;19.60;71.60;;;;;;5048589;27;83565;-46
2022/08/31 04:14:56;;;;;;;;;;;19.50;71.60;;;;;;5048981;28;84821;-45
2022/08/31 04:17:22;;;;;;;;;;;19.60;71.60;;;;;;5049434;28;82043;-46
2022/08/31 04:19:47;;;;;;;;;;;19.50;71.40;;;;;;5049172;27;83738;-44
2022/08/31 04:22:13;;;;;;;;;;;19.50;71.50;;;;;;5049027;28;82924;-44
2022/08/31 04:24:39;;;;;;;;;;;19.50;71.50;;;;;;5048975;28;82190;-45
2022/08/31 04:27:04;;;;;;;;;;;19.50;71.50;;;;;;5049222;28;82479;-46
2022/08/31 04:29:30;;;;;;;;;;;19.50;71.40;;;;;;5052266;28;82035;-46
2022/08/31 04:31:56;;;;;;;;;;;19.50;71.60;;;;;;5048870;28;82257;-46
2022/08/31 04:34:21;;;;;;;;;;;19.50;71.50;;;;;;5048752;28;82932;-46
2022/08/31 04:36:47;;;;;;;;;;;19.50;71.40;;;;;;5048489;28;83012;-45
2022/08/31 04:39:12;;;;;;;;;;;19.50;71.50;;;;;;5048869;27;84640;-47
2022/08/31 04:41:38;;;;;;;;;;;19.50;71.40;;;;;;5048851;28;82056;-49
2022/08/31 04:44:04;;;;;;;;;;;19.50;71.50;;;;;;5048705;28;82101;-43
2022/08/31 04:46:30;;;;;;;;;;;19.40;71.50;;;;;;5048968;27;82126;-45
2022/08/31 04:48:56;;;;;;;;;;;19.40;71.40;;;;;;5048343;28;82903;-43
2022/08/31 04:51:34;;;;;;;;;;;19.40;71.50;;;;;;5051522;28;81947;-43
2022/08/31 04:54:00;;;;;;;;;;;19.40;71.50;;;;;;5049034;28;82927;-46
2022/08/31 04:56:28;;;;;;;;;;;19.40;71.40;;;;;;5048649;28;82926;-46
2022/08/31 04:59:04;;;;;;;;;;;19.40;71.40;;;;;;5048455;27;82726;-43
2022/08/31 05:01:31;;;;;;;;;;;19.40;71.30;;;;;;5047509;28;85443;-45
2022/08/31 05:03:58;;;;;;;;;;;19.40;71.60;;;;;;5048508;28;82018;-45
2022/08/31 05:06:27;;;;;;;;;;;19.40;71.70;;;;;;5048502;28;82413;-45
2022/08/31 05:08:54;;;;;;;;;;;19.40;71.50;;;;;;5048110;28;82090;-44
2022/08/31 05:11:20;;;;;;;;;;;19.40;71.50;;;;;;5048559;28;82038;-46
2022/08/31 05:13:46;;;;;;;;;;;19.40;71.40;;;;;;5051048;27;83944;-45
2022/08/31 05:16:12;;;;;;;;;;;19.40;71.50;;;;;;5048566;28;82037;-43
2022/08/31 05:18:42;;;;;;;;;;;19.40;71.50;;;;;;5048904;28;82445;-46
2022/08/31 05:21:11;;;;;;;;;;;19.40;71.40;;;;;;5047514;27;84370;-45
2022/08/31 05:23:37;;;;;;;;;;;19.40;71.40;;;;;;5048025;28;82104;-46
2022/08/31 05:26:02;;;;;;;;;;;19.40;71.30;;;;;;5047801;27;82967;-45
2022/08/31 05:28:28;;;;;;;;;;;19.40;71.40;;;;;;5047892;28;82921;-46
2022/08/31 05:30:53;;;;;;;;;;;19.40;71.40;;;;;;5048385;28;82063;-43
2022/08/31 05:33:19;;;;;;;;;;;19.30;71.30;;;;;;5047831;27;82949;-43
2022/08/31 05:35:46;;;;;;;;;;;19.40;71.40;;;;;;5050516;28;83479;-44
2022/08/31 05:38:12;;;;;;;;;;;19.40;71.40;;;;;;5048330;28;82437;-46
2022/08/31 05:40:37;;;;;;;;;;;19.30;71.40;;;;;;5047924;28;82999;-44
2022/08/31 05:43:03;;;;;;;;;;;19.30;71.40;;;;;;5048741;28;81350;-44
2022/08/31 05:45:28;;;;;;;;;;;19.30;71.40;;;;;;5048200;28;81944;-46
2022/08/31 05:47:54;;;;;;;;;;;19.30;71.40;;;;;;5047202;28;82786;-46
2022/08/31 05:50:20;;;;;;;;;;;19.40;71.40;;;;;;5047060;28;82866;-47
2022/08/31 05:52:45;;;;;;;;;;;19.30;71.40;;;;;;5048174;28;83658;-46
2022/08/31 05:55:11;;;;;;;;;;;19.30;71.30;;;;;;5047736;28;82965;-45
2022/08/31 05:57:39;;;;;;;;;;;19.30;71.50;;;;;;5050460;28;82063;-46
2022/08/31 06:00:09;;;;;;;;;;;19.30;71.50;;;;;;5047492;28;82152;-46
2022/08/31 06:02:35;;;;;;;;;;;19.40;71.30;;;;;;5047317;28;82058;-44
2022/08/31 06:05:01;;;;;;;;;;;19.30;71.40;;;;;;5047453;27;83043;-43
2022/08/31 06:07:27;;;;;;;;;;;19.30;71.20;;;;;;5048124;28;82392;-46
2022/08/31 06:09:52;;;;;;;;;;;19.30;71.40;;;;;;5047597;28;82095;-46
2022/08/31 06:12:18;;;;;;;;;;;19.40;71.30;;;;;;5047701;27;82224;-46
2022/08/31 06:14:44;;;;;;;;;;;19.40;71.30;;;;;;5046297;28;85438;-47
2022/08/31 06:17:10;;;;;;;;;;;19.40;71.20;;;;;;5047121;28;82097;-43
2022/08/31 06:19:37;;;;;;;;;;;19.30;71.10;;;;;;5050126;27;82432;-45
2022/08/31 06:22:03;;;;;;;;;;;19.30;71.10;;;;;;5047217;28;81914;-48
2022/08/31 06:24:28;;;;;;;;;;;19.30;71.20;;;;;;5047265;28;82436;-46
2022/08/31 06:26:57;;;;;;;;;;;19.40;71.30;;;;;;5047209;28;83118;-44
2022/08/31 06:29:22;;;;;;;;;;;19.40;71.20;;;;;;5047245;28;81887;-44
2022/08/31 06:31:48;;;;;;;;;;;19.40;71.10;;;;;;5047520;27;82438;-47
2022/08/31 06:34:15;;;;;;;;;;;19.40;71.10;;;;;;5046165;27;83128;-45
2022/08/31 06:36:40;;;;;;;;;;;19.40;71.30;;;;;;5047586;28;82991;-45
2022/08/31 06:39:06;;;;;;;;;;;19.40;71.20;;;;;;5049153;28;82764;-43
2022/08/31 06:41:33;;;;;;;;;;;19.40;70.90;;;;;;5047121;28;81947;-46
2022/08/31 06:44:00;;;;;;;;;;;19.40;71.00;;;;;;5047012;27;82319;-45
2022/08/31 06:46:26;;;;;;;;;;;19.40;70.90;;;;;;5046569;28;84297;-43
2022/08/31 06:48:53;;;;;;;;;;;19.30;71.00;;;;;;5046464;28;82075;-45
2022/08/31 06:51:18;;;;;;;;;;;19.40;71.00;;;;;;5047004;27;82451;-45
2022/08/31 06:53:44;;;;;;;;;;;19.30;71.20;;;;;;5046757;28;83326;-43
2022/08/31 06:56:14;;;;;;;;;;;19.30;71.20;;;;;;5047601;28;81407;-46
2022/08/31 06:58:39;;;;;;;;;;;19.40;71.20;;;;;;5046920;27;82069;-46
2022/08/31 07:01:10;;;;;;;;;;;19.40;71.10;;;;;;5049076;28;83450;-46
2022/08/31 07:03:36;;;;;;;;;;;19.40;71.20;;;;;;5046059;27;82951;-44
2022/08/31 07:06:07;;;;;;;;;;;19.40;71.10;;;;;;5046419;28;84425;-45
2022/08/31 07:08:32;;;;;;;;;;;19.40;71.20;;;;;;5046494;28;82080;-43
2022/08/31 07:10:58;;;;;;;;;;;19.40;71.10;;;;;;5046706;28;82807;-43
2022/08/31 07:13:23;;;;;;;;;;;19.40;71.10;;;;;;5046521;28;82379;-44
2022/08/31 07:15:49;;;;;;;;;;;19.40;71.10;;;;;;5046572;28;82010;-44
2022/08/31 07:18:14;;;;;;;;;;;19.40;71.20;;;;;;5046614;28;82421;-44
2022/08/31 07:20:40;;;;;;;;;;;19.40;71.20;;;;;;5046883;28;82359;-46
2022/08/31 07:23:05;;;;;;;;;;;19.40;71.10;;;;;;5049001;28;81843;-46
2022/08/31 07:25:31;;;;;;;;;;;19.40;71.20;;;;;;5046303;28;83017;-43
2022/08/31 07:27:58;;;;;;;;;;;19.40;71.30;;;;;;5045843;28;83002;-45
2022/08/31 07:30:24;;;;;;;;;;;19.40;71.20;;;;;;5046374;27;83368;-44
2022/08/31 07:32:50;;;;;;;;;;;19.40;71.10;;;;;;5046155;28;84583;-46
2022/08/31 07:35:17;;;;;;;;;;;19.40;71.10;;;;;;5046082;28;82021;-46
2022/08/31 07:43:11;;;;;;;;;;;19.40;71.40;;;;;;5046412;28;81940;-43
2022/08/31 07:45:36;;;;;;;;;;;19.40;71.40;;;;;;5048843;28;82392;-45
2022/08/31 07:48:02;;;;;;;;;;;19.50;71.30;;;;;;5045670;28;81932;-46
2022/08/31 07:50:30;;;;;;;;;;;19.40;71.40;;;;;;5046241;27;81909;-47
2022/08/31 07:52:57;;;;;;;;;;;19.50;71.50;;;;;;5044882;28;85323;-46
2022/08/31 07:55:23;;;;;;;;;;;19.50;71.50;;;;;;5045864;28;82182;-43
2022/08/31 07:57:52;;;;;;;;;;;19.50;71.50;;;;;;5046015;27;82032;-43
2022/08/31 08:00:27;;;;;;;;;;;19.50;71.40;;;;;;5045706;28;84120;-43
2022/08/31 08:02:53;;;;;;;;;;;19.50;71.50;;;;;;5046290;28;81947;-46
2022/08/31 08:05:21;;;;;;;;;;;19.50;71.40;;;;;;5045943;27;81990;-46
2022/08/31 08:07:48;;;;;;;;;;;19.50;71.40;;;;;;5048311;28;84908;-47
2022/08/31 08:10:14;;;;;;;;;;;19.50;71.40;;;;;;5046040;27;82317;-45
2022/08/31 08:12:41;;;;;;;;;;;19.50;71.30;;;;;;5045716;28;82325;-45
2022/08/31 08:15:07;;;;;;;;;;;19.50;71.40;;;;;;5045566;27;82085;-46
2022/08/31 08:17:32;;;;;;;;;;;19.50;71.40;;;;;;5044996;27;82911;-47
2022/08/31 08:19:58;;;;;;;;;;;19.50;71.50;;;;;;5045641;28;82050;-45
2022/08/31 08:22:23;;;;;;;;;;;19.50;71.60;;;;;;5045968;28;82071;-46
2022/08/31 08:24:49;;;;;;;;;;;19.50;71.60;;;;;;5045350;28;82418;-46
2022/08/31 08:27:15;;;;;;;;;;;19.50;71.50;;;;;;5045115;28;83613;-45
2022/08/31 08:29:41;;;;;;;;;;;19.50;71.60;;;;;;5048119;28;81815;-43
2022/08/31 08:32:08;;;;;;;;;;;19.50;71.90;;;;;;5044982;28;84397;-45
2022/08/31 08:34:38;;;;;;;;;;;19.50;71.80;;;;;;5045775;28;81282;-45
2022/08/31 08:37:04;;;;;;;;;;;19.50;72.20;;;;;;5045232;27;83141;-46
2022/08/31 08:39:30;;;;;;;;;;;19.50;72.40;;;;;;5044862;28;82868;-46
2022/08/31 08:41:58;;;;;;;;;;;19.60;72.40;;;;;;5045062;28;82863;-46
2022/08/31 08:44:26;;;;;;;;;;;19.60;72.20;;;;;;5045524;27;83150;-46
2022/08/31 08:46:56;;;;;;;;;;;19.50;72.30;;;;;;5045054;28;84699;-44
2022/08/31 08:49:26;;;;;;;;;;;19.50;72.20;;;;;;5047669;28;82003;-43
2022/08/31 08:51:54;;;;;;;;;;;19.50;72.40;;;;;;5044787;28;84480;-43
2022/08/31 08:54:24;;;;;;;;;;;19.50;72.30;;;;;;5045038;28;82321;-46
2022/08/31 08:56:50;;;;;;;;;;;19.50;72.40;;;;;;5046773;27;83624;-46
2022/08/31 08:59:16;;;;;;;;;;;19.60;72.60;;;;;;5048779;28;83787;-45
2022/08/31 09:01:45;;;;;;;;;;;19.50;72.70;;;;;;5048459;28;82030;-45
2022/08/31 09:04:17;;;;;;;;;;;19.60;72.60;;;;;;5048442;27;82422;-43
2022/08/31 09:06:53;;;;;;;;;;;19.60;72.70;;;;;;5047115;28;85563;-44
2022/08/31 09:09:21;;;;;;;;;;;19.60;72.70;;;;;;5048422;28;82048;-44
2022/08/31 09:12:06;;;;;;;;;;;19.60;72.70;;;;;;5051190;28;82556;-45
2022/08/31 09:14:47;;;;;;;;;;;19.60;72.60;;;;;;5048280;28;81951;-45
2022/08/31 09:17:19;;;;;;;;;;;19.60;72.70;;;;;;5048013;27;83962;-45
2022/08/31 09:20:03;;;;;;;;;;;19.60;72.80;;;;;;5048362;28;82952;-43
2022/08/31 09:22:51;;;;;;;;;;;19.60;72.90;;;;;;5048381;28;81908;-46
2022/08/31 09:25:28;;;;;;;;;;;19.60;72.90;;;;;;5048728;27;82180;-49
2022/08/31 09:27:56;;;;;;;;;;;19.70;73.00;;;;;;5047887;28;84408;-45
2022/08/31 09:30:51;;;;;;;;;;;19.70;73.00;;;;;;5048011;28;81858;-46
2022/08/31 09:33:20;;;;;;;;;;;19.70;72.80;;;;;;5041803;27;83738;-42
2022/08/31 09:35:46;;;;;;;;;;;19.70;72.80;;;;;;5050481;28;84526;-44
2022/08/31 09:38:24;;;;;;;;;;;19.70;72.80;;;;;;5047859;27;83835;-46
2022/08/31 09:40:51;;;;;;;;;;;19.70;72.70;;;;;;5048194;28;83056;-45
2022/08/31 09:43:26;;;;;;;;;;;19.80;73.20;;;;;;5047693;28;82066;-44
2022/08/31 09:45:56;;;;;;;;;;;19.80;72.70;;;;;;5048002;27;82343;-46
2022/08/31 09:48:42;;;;;;;;;;;19.80;72.70;;;;;;5047050;28;82984;-47
2022/08/31 09:51:09;;;;;;;;;;;19.80;72.70;;;;;;5048086;28;81248;-43
2022/08/31 09:56:24;;;;;;;;;;;19.80;72.70;;;;;;5047056;28;82470;-43
2022/08/31 09:58:49;;;;;;;;;;;19.80;72.60;;;;;;5049695;28;83557;-45
2022/08/31 10:01:44;;;;;;;;;;;19.80;72.90;;;;;;5047601;28;82859;-43
2022/08/31 10:04:17;;;;;;;;;;;19.80;72.90;;;;;;5042377;28;81987;-45
2022/08/31 10:06:45;;;;;;;;;;;19.80;72.60;;;;;;5047477;27;83987;-45
2022/08/31 10:09:13;;;;;;;;;;;19.90;72.80;;;;;;5047290;28;82976;-45
2022/08/31 10:11:40;;;;;;;;;;;19.90;72.70;;;;;;5047476;28;82075;-44
2022/08/31 10:14:28;;;;;;;;;;;19.90;72.70;;;;;;5047510;27;82459;-45
2022/08/31 10:17:01;;;;;;;;;;;19.90;72.50;;;;;;5047698;28;82460;-43
2022/08/31 10:19:33;;;;;;;;;;;19.90;72.30;;;;;;5047334;28;81962;-46
2022/08/31 10:22:02;;;;;;;;;;;19.90;72.40;;;;;;5049682;27;83965;-45
2022/08/31 10:24:37;;;;;;;;;;;20.00;72.30;;;;;;5046379;28;82870;-46
2022/08/31 10:27:02;;;;;;;;;;;20.00;72.20;;;;;;5047237;27;84707;-47
2022/08/31 10:29:32;;;;;;;;;;;20.00;72.40;;;;;;5047074;28;83049;-47
2022/08/31 10:32:00;;;;;;;;;;;20.00;72.20;;;;;;5047243;28;82073;-48
2022/08/31 10:37:25;;;;;;;;;;;20.10;72.20;;;;;;5047189;28;82264;-43
2022/08/31 10:39:52;;;;;;;;;;;20.10;72.00;;;;;;5046993;28;81901;-43
2022/08/31 10:42:24;;;;;;;;;;;20.10;72.00;;;;;;5050033;27;82304;-46
2022/08/31 10:44:56;;;;;;;;;;;20.10;72.00;;;;;;5046790;28;82046;-44
2022/08/31 10:47:22;;;;;;;;;;;20.10;72.10;;;;;;5047116;28;83841;-47
2022/08/31 10:49:51;;;;;;;;;;;20.20;72.00;;;;;;5045437;28;85225;-48
2022/08/31 10:52:33;;;;;;;;;;;20.20;71.80;;;;;;5046815;28;82010;-47
2022/08/31 10:55:05;;;;;;;;;;;20.20;71.90;;;;;;5046901;27;82678;-45
2022/08/31 10:57:40;;;;;;;;;;;20.30;71.90;;;;;;5046366;28;84282;-44
2022/08/31 11:00:40;;;;;;;;;;;20.30;71.80;;;;;;5047163;28;81855;-47
2022/08/31 11:03:23;;;;;;;;;;;20.30;72.00;;;;;;5046019;28;83011;-44
2022/08/31 11:06:06;;;;;;;;;;;20.30;71.70;;;;;;5037683;28;84310;-43
2022/08/31 11:08:37;;;;;;;;;;;20.30;71.90;;;;;;5047215;27;82381;-47
2022/08/31 11:11:05;;;;;;;;;;;20.40;72.10;;;;;;5046759;28;83139;-46
2022/08/31 11:13:37;;;;;;;;;;;20.40;72.00;;;;;;5046394;28;81939;-44
2022/08/31 11:16:02;;;;;;;;;;;20.40;72.00;;;;;;5045648;27;83467;-46
2022/08/31 11:18:38;;;;;;;;;;;20.40;71.90;;;;;;5046183;28;82881;-47
2022/08/31 11:21:24;;;;;;;;;;;20.40;72.20;;;;;;5046372;28;82038;-45
2022/08/31 11:23:49;;;;;;;;;;;20.40;72.20;;;;;;5046301;27;82397;-45
2022/08/31 11:26:37;;;;;;;;;;;20.40;72.20;;;;;;5046440;28;82729;-47
2022/08/31 11:29:15;;;;;;;;;;;20.40;72.20;;;;;;5049150;28;81922;-46
2022/08/31 11:31:41;;;;;;;;;;;20.50;72.10;;;;;;5046199;28;82141;-44
2022/08/31 11:34:12;;;;;;;;;;;20.50;71.90;;;;;;5046983;28;81247;-43
2022/08/31 11:36:53;;;;;;;;;;;20.50;72.00;;;;;;5046317;27;81792;-45
2022/08/31 11:39:21;;;;;;;;;;;20.50;71.90;;;;;;5046107;28;82935;-45
2022/08/31 11:41:47;;;;;;;;;;;20.50;71.90;;;;;;5045320;28;83001;-44
2022/08/31 11:44:35;;;;;;;;;;;20.60;72.00;;;;;;5046078;28;85029;-46
2022/08/31 11:47:03;;;;;;;;;;;20.50;72.00;;;;;;5041715;28;83657;-43
2022/08/31 11:49:36;;;;;;;;;;;20.60;72.00;;;;;;5045427;28;82088;-46
2022/08/31 11:52:09;;;;;;;;;;;20.60;72.00;;;;;;5048482;28;82306;-47
2022/08/31 11:54:40;;;;;;;;;;;20.60;72.00;;;;;;5046215;28;81988;-45
2022/08/31 11:57:07;;;;;;;;;;;20.60;71.80;;;;;;5046156;27;82137;-47
2022/08/31 11:59:38;;;;;;;;;;;20.60;71.80;;;;;;5046562;28;82299;-46
2022/08/31 12:02:19;;;;;;;;;;;20.60;71.60;;;;;;5045651;28;82085;-45
2022/08/31 12:04:47;;;;;;;;;;;20.60;71.60;;;;;;5045947;28;82468;-45
2022/08/31 12:07:14;;;;;;;;;;;20.60;71.60;;;;;;5044784;28;83178;-46
2022/08/31 12:09:40;;;;;;;;;;;20.70;71.80;;;;;;5046021;28;82075;-46
2022/08/31 12:12:08;;;;;;;;;;;20.60;71.90;;;;;;5045901;28;82247;-46
2022/08/31 12:14:37;;;;;;;;;;;20.70;71.70;;;;;;5048153;28;84576;-46
2022/08/31 12:17:11;;;;;;;;;;;20.70;71.70;;;;;;5045737;28;83194;-46
2022/08/31 12:20:00;;;;;;;;;;;20.70;71.80;;;;;;5045280;28;84273;-46
2022/08/31 12:25:51;;;;;;;;;;;20.70;71.70;;;;;;5045791;28;81104;-43
2022/08/31 12:28:22;;;;;;;;;;;20.70;71.70;;;;;;5040869;28;84680;-43
2022/08/31 12:30:50;;;;;;;;;;;20.80;71.80;;;;;;5045882;27;82876;-45
2022/08/31 12:33:36;;;;;;;;;;;20.80;71.80;;;;;;5048423;27;82903;-46
2022/08/31 12:36:16;;;;;;;;;;;20.80;71.80;;;;;;5048328;28;84615;-45
2022/08/31 12:38:42;;;;;;;;;;;20.80;71.70;;;;;;5052056;28;82055;-44
2022/08/31 12:41:12;;;;;;;;;;;20.80;71.70;;;;;;5048841;28;83001;-43
2022/08/31 12:43:45;;;;;;;;;;;20.80;71.70;;;;;;5048704;28;82082;-46
2022/08/31 12:46:19;;;;;;;;;;;20.80;71.80;;;;;;5048668;27;82433;-47
2022/08/31 12:49:11;;;;;;;;;;;20.80;71.90;;;;;;5048104;28;82809;-46
2022/08/31 12:52:05;;;;;;;;;;;20.90;71.90;;;;;;5039680;28;81308;-46
2022/08/31 12:54:49;;;;;;;;;;;20.90;72.00;;;;;;5043043;27;83058;-45
2022/08/31 12:57:14;;;;;;;;;;;20.90;72.00;;;;;;5048651;28;82861;-49
2022/08/31 12:59:46;;;;;;;;;;;20.90;72.00;;;;;;5051130;28;82929;-45
2022/08/31 13:02:12;;;;;;;;;;;20.90;72.00;;;;;;5048374;28;84550;-45
2022/08/31 13:04:45;;;;;;;;;;;20.90;72.00;;;;;;5048727;28;81947;-46
2022/08/31 13:07:20;;;;;;;;;;;20.90;72.00;;;;;;5048831;27;81893;-46
2022/08/31 13:09:46;;;;;;;;;;;21.00;72.00;;;;;;5048349;28;82876;-43
2022/08/31 13:12:20;;;;;;;;;;;21.00;72.00;;;;;;5048701;28;82041;-44
2022/08/31 13:14:46;;;;;;;;;;;21.00;72.10;;;;;;5048664;28;82301;-46
2022/08/31 13:17:14;;;;;;;;;;;21.00;72.10;;;;;;5047230;28;85368;-47
2022/08/31 13:19:44;;;;;;;;;;;21.00;72.10;;;;;;5048383;28;82114;-43
2022/08/31 13:22:15;;;;;;;;;;;21.00;72.10;;;;;;5050805;27;82400;-48
2022/08/31 13:24:42;;;;;;;;;;;21.00;72.10;;;;;;5047547;28;83316;-43
2022/08/31 13:27:20;;;;;;;;;;;21.00;72.10;;;;;;5048349;27;83116;-46
2022/08/31 13:29:46;;;;;;;;;;;21.00;72.00;;;;;;5048413;28;83022;-45
2022/08/31 13:32:18;;;;;;;;;;;21.10;71.80;;;;;;5048106;28;82214;-46
2022/08/31 13:34:44;;;;;;;;;;;21.10;71.90;;;;;;5048547;27;82369;-45
2022/08/31 13:37:13;;;;;;;;;;;21.10;71.80;;;;;;5048070;28;82778;-46
2022/08/31 13:39:43;;;;;;;;;;;21.10;71.80;;;;;;5047981;28;82007;-48
2022/08/31 13:42:11;;;;;;;;;;;21.10;71.70;;;;;;5048003;27;82451;-43
2022/08/31 13:44:42;;;;;;;;;;;21.10;71.60;;;;;;5050324;28;83059;-43
2022/08/31 13:47:22;;;;;;;;;;;21.10;71.60;;;;;;5047881;27;83875;-43
2022/08/31 13:49:51;;;;;;;;;;;21.10;71.60;;;;;;5046723;28;83633;-45
2022/08/31 13:52:20;;;;;;;;;;;21.10;71.50;;;;;;5047758;28;82000;-44
2022/08/31 13:54:56;;;;;;;;;;;21.10;71.60;;;;;;5047954;27;82359;-43
2022/08/31 13:57:27;;;;;;;;;;;21.10;71.30;;;;;;5047600;28;85653;-45
2022/08/31 13:59:53;;;;;;;;;;;21.10;71.10;;;;;;5047764;28;81879;-45
2022/08/31 14:02:19;;;;;;;;;;;21.10;71.30;;;;;;5047998;28;82422;-46
2022/08/31 14:07:22;;;;;;;;;;;21.10;71.40;;;;;;5050793;28;81218;-44
2022/08/31 14:09:50;;;;;;;;;;;21.10;71.40;;;;;;5047289;28;83100;-44
2022/08/31 14:12:29;;;;;;;;;;;21.20;71.30;;;;;;5047657;28;82007;-45
2022/08/31 14:14:58;;;;;;;;;;;21.20;71.30;;;;;;5046661;27;83953;-46
2022/08/31 14:17:23;;;;;;;;;;;21.20;71.50;;;;;;5047090;28;83643;-44
2022/08/31 14:19:49;;;;;;;;;;;21.20;71.40;;;;;;5047574;28;82036;-46
2022/08/31 14:22:35;;;;;;;;;;;21.20;71.40;;;;;;5047518;28;82499;-47
2022/08/31 14:25:01;;;;;;;;;;;21.20;71.50;;;;;;5046900;28;83022;-46
2022/08/31 14:27:27;;;;;;;;;;;21.20;71.50;;;;;;5047218;28;82355;-43
2022/08/31 14:29:53;;;;;;;;;;;21.20;71.40;;;;;;5049484;27;84982;-44
2022/08/31 14:32:21;;;;;;;;;;;21.20;71.50;;;;;;5047631;28;81339;-45
2022/08/31 14:34:47;;;;;;;;;;;21.20;71.50;;;;;;5047245;27;81895;-46
2022/08/31 14:37:21;;;;;;;;;;;21.20;71.40;;;;;;5046985;28;82885;-44
2022/08/31 14:39:59;;;;;;;;;;;21.20;71.40;;;;;;5046686;28;82771;-43
2022/08/31 14:42:26;;;;;;;;;;;21.20;71.40;;;;;;5046915;27;85224;-46
2022/08/31 14:45:01;;;;;;;;;;;21.20;71.30;;;;;;5046714;28;83076;-44
2022/08/31 14:47:27;;;;;;;;;;;21.20;71.30;;;;;;5046748;28;82960;-46